sensor_id;sensor_type;location;lat;lon;timestamp;pressure;altitude;pressure_sealevel;temperature;humidity
13027;BME280;6580;42.680;23.324;2024-01-27T00:02:20;95768.91;;;4.88;77.23
13027;BME280;6580;42.680;23.324;2024-01-27T00:04:47;95764.94;;;4.70;77.45
13027;BME280;6580;42.680;23.324;2024-01-27T00:07:14;95763.69;;;4.63;78.19
13027;BME280;6580;42.680;23.324;2024-01-27T00:09:42;95778.16;;;4.70;78.79
13027;BME280;6580;42.680;23.324;2024-01-27T00:12:11;95774.84;;;4.66;78.52
13027;BME280;6580;42.680;23.324;2024-01-27T00:14:40;95773.78;;;4.81;76.57
13027;BME280;6580;42.680;23.324;2024-01-27T00:17:09;95772.00;;;4.69;77.68
13027;BME280;6580;42.680;23.324;2024-01-27T00:19:36;95766.94;;;4.66;78.12
13027;BME280;6580;42.680;23.324;2024-01-27T00:22:03;95759.69;;;4.70;78.51
13027;BME280;6580;42.680;23.324;2024-01-27T00:24:34;95763.56;;;4.64;78.57
13027;BME280;6580;42.680;23.324;2024-01-27T00:27:03;95769.69;;;4.77;79.44
13027;BME280;6580;42.680;23.324;2024-01-27T00:29:31;95764.56;;;4.51;79.80
13027;BME280;6580;42.680;23.324;2024-01-27T00:32:01;95769.19;;;4.60;79.30
13027;BME280;6580;42.680;23.324;2024-01-27T00:34:29;95760.44;;;4.59;79.55
13027;BME280;6580;42.680;23.324;2024-01-27T00:36:56;95756.72;;;4.62;79.17
13027;BME280;6580;42.680;23.324;2024-01-27T00:39:23;95754.41;;;4.70;78.79
13027;BME280;6580;42.680;23.324;2024-01-27T00:41:51;95760.63;;;4.69;78.72
13027;BME280;6580;42.680;23.324;2024-01-27T00:44:23;95758.22;;;4.53;79.75
13027;BME280;6580;42.680;23.324;2024-01-27T00:46:51;95762.53;;;4.67;80.41
13027;BME280;6580;42.680;23.324;2024-01-27T00:49:18;95765.78;;;4.70;79.29
13027;BME280;6580;42.680;23.324;2024-01-27T00:51:45;95765.06;;;4.92;78.57
13027;BME280;6580;42.680;23.324;2024-01-27T00:54:12;95756.50;;;4.77;78.21
13027;BME280;6580;42.680;23.324;2024-01-27T00:56:39;95754.97;;;4.86;78.38
13027;BME280;6580;42.680;23.324;2024-01-27T00:59:06;95753.63;;;4.80;78.74
13027;BME280;6580;42.680;23.324;2024-01-27T01:01:37;95746.16;;;4.74;80.30
13027;BME280;6580;42.680;23.324;2024-01-27T01:04:06;95741.78;;;4.86;78.93
13027;BME280;6580;42.680;23.324;2024-01-27T01:06:33;95730.88;;;4.90;78.49
13027;BME280;6580;42.680;23.324;2024-01-27T01:09:02;95744.41;;;4.86;78.70
13027;BME280;6580;42.680;23.324;2024-01-27T01:11:30;95740.63;;;4.90;78.86
13027;BME280;6580;42.680;23.324;2024-01-27T01:13:59;95754.84;;;4.87;79.49
13027;BME280;6580;42.680;23.324;2024-01-27T01:16:27;95750.03;;;4.81;79.73
13027;BME280;6580;42.680;23.324;2024-01-27T01:18:56;95745.97;;;4.88;79.25
13027;BME280;6580;42.680;23.324;2024-01-27T01:21:23;95762.50;;;5.02;80.09
13027;BME280;6580;42.680;23.324;2024-01-27T01:23:50;95736.00;;;4.81;80.69
13027;BME280;6580;42.680;23.324;2024-01-27T01:26:17;95745.59;;;4.82;81.16
13027;BME280;6580;42.680;23.324;2024-01-27T01:28:46;95741.66;;;4.87;80.63
13027;BME280;6580;42.680;23.324;2024-01-27T01:31:13;95744.63;;;4.83;81.36
13027;BME280;6580;42.680;23.324;2024-01-27T01:33:40;95742.94;;;4.82;81.57
13027;BME280;6580;42.680;23.324;2024-01-27T01:36:10;95741.69;;;4.75;81.93
13027;BME280;6580;42.680;23.324;2024-01-27T01:38:37;95737.47;;;4.85;80.22
13027;BME280;6580;42.680;23.324;2024-01-27T01:41:04;95732.44;;;4.69;80.18
13027;BME280;6580;42.680;23.324;2024-01-27T01:43:31;95730.75;;;4.68;80.48
13027;BME280;6580;42.680;23.324;2024-01-27T01:45:59;95727.28;;;4.68;80.37
13027;BME280;6580;42.680;23.324;2024-01-27T01:48:28;95721.28;;;4.89;79.27
13027;BME280;6580;42.680;23.324;2024-01-27T01:51:00;95718.91;;;4.74;79.22
13027;BME280;6580;42.680;23.324;2024-01-27T01:53:33;95711.97;;;4.73;79.20
13027;BME280;6580;42.680;23.324;2024-01-27T01:56:06;95713.47;;;4.64;80.06
13027;BME280;6580;42.680;23.324;2024-01-27T01:58:37;95715.59;;;4.59;80.12
13027;BME280;6580;42.680;23.324;2024-01-27T02:01:04;95721.50;;;4.63;79.63
13027;BME280;6580;42.680;23.324;2024-01-27T02:03:31;95716.91;;;4.54;80.04
13027;BME280;6580;42.680;23.324;2024-01-27T02:05:58;95710.16;;;4.73;79.90
13027;BME280;6580;42.680;23.324;2024-01-27T02:08:26;95707.34;;;4.64;80.33
13027;BME280;6580;42.680;23.324;2024-01-27T02:10:59;95704.31;;;4.81;79.62
13027;BME280;6580;42.680;23.324;2024-01-27T02:13:28;95684.47;;;4.88;78.40
13027;BME280;6580;42.680;23.324;2024-01-27T02:15:55;95669.94;;;4.82;76.88
13027;BME280;6580;42.680;23.324;2024-01-27T02:18:22;95672.66;;;4.81;75.89
13027;BME280;6580;42.680;23.324;2024-01-27T02:20:50;95673.44;;;4.94;76.75
13027;BME280;6580;42.680;23.324;2024-01-27T02:23:18;95690.22;;;4.93;75.62
13027;BME280;6580;42.680;23.324;2024-01-27T02:25:47;95691.31;;;4.90;75.73
13027;BME280;6580;42.680;23.324;2024-01-27T02:28:21;95686.34;;;5.09;73.00
13027;BME280;6580;42.680;23.324;2024-01-27T02:30:49;95680.47;;;5.05;70.95
13027;BME280;6580;42.680;23.324;2024-01-27T02:33:16;95680.41;;;5.18;70.72
13027;BME280;6580;42.680;23.324;2024-01-27T02:35:44;95682.41;;;5.14;69.14
13027;BME280;6580;42.680;23.324;2024-01-27T02:38:11;95675.72;;;5.21;68.83
13027;BME280;6580;42.680;23.324;2024-01-27T02:40:38;95689.75;;;5.22;66.16
13027;BME280;6580;42.680;23.324;2024-01-27T02:43:07;95677.66;;;5.30;65.75
13027;BME280;6580;42.680;23.324;2024-01-27T02:45:34;95672.84;;;5.24;64.77
13027;BME280;6580;42.680;23.324;2024-01-27T02:48:04;95682.03;;;5.53;63.76
13027;BME280;6580;42.680;23.324;2024-01-27T02:50:37;95677.94;;;5.49;63.35
13027;BME280;6580;42.680;23.324;2024-01-27T02:53:06;95674.25;;;5.52;63.58
13027;BME280;6580;42.680;23.324;2024-01-27T02:55:35;95673.16;;;5.54;64.07
13027;BME280;6580;42.680;23.324;2024-01-27T02:58:02;95676.66;;;5.55;63.50
13027;BME280;6580;42.680;23.324;2024-01-27T03:00:32;95638.53;;;5.24;63.96
13027;BME280;6580;42.680;23.324;2024-01-27T03:02:58;95691.13;;;5.38;64.90
13027;BME280;6580;42.680;23.324;2024-01-27T03:05:26;95688.13;;;5.32;66.00
13027;BME280;6580;42.680;23.324;2024-01-27T03:07:53;95683.19;;;5.27;67.32
13027;BME280;6580;42.680;23.324;2024-01-27T03:10:22;95700.16;;;5.12;69.07
13027;BME280;6580;42.680;23.324;2024-01-27T03:12:49;95699.94;;;5.15;68.76
13027;BME280;6580;42.680;23.324;2024-01-27T03:15:17;95682.91;;;5.19;69.65
13027;BME280;6580;42.680;23.324;2024-01-27T03:17:49;95703.59;;;5.36;67.60
13027;BME280;6580;42.680;23.324;2024-01-27T03:20:19;95699.44;;;5.56;66.24
13027;BME280;6580;42.680;23.324;2024-01-27T03:22:46;95694.34;;;5.76;66.00
13027;BME280;6580;42.680;23.324;2024-01-27T03:25:14;95691.78;;;5.75;67.23
13027;BME280;6580;42.680;23.324;2024-01-27T03:27:43;95694.75;;;5.83;70.22
13027;BME280;6580;42.680;23.324;2024-01-27T03:30:13;95690.28;;;5.83;72.22
13027;BME280;6580;42.680;23.324;2024-01-27T03:32:40;95696.47;;;5.71;75.83
13027;BME280;6580;42.680;23.324;2024-01-27T03:35:10;95691.91;;;5.62;77.23
13027;BME280;6580;42.680;23.324;2024-01-27T03:37:38;95689.75;;;5.67;81.03
13027;BME280;6580;42.680;23.324;2024-01-27T03:40:07;95676.31;;;5.70;82.91
13027;BME280;6580;42.680;23.324;2024-01-27T03:42:34;95674.63;;;5.58;85.16
13027;BME280;6580;42.680;23.324;2024-01-27T03:45:01;95670.28;;;5.57;90.32
13027;BME280;6580;42.680;23.324;2024-01-27T03:47:28;95675.81;;;5.65;91.59
13027;BME280;6580;42.680;23.324;2024-01-27T03:49:55;95667.06;;;5.54;93.47
13027;BME280;6580;42.680;23.324;2024-01-27T03:52:26;95664.06;;;5.58;97.75
13027;BME280;6580;42.680;23.324;2024-01-27T03:54:54;95668.00;;;5.53;99.41
13027;BME280;6580;42.680;23.324;2024-01-27T03:57:21;95664.28;;;5.55;99.93
13027;BME280;6580;42.680;23.324;2024-01-27T03:59:48;95650.81;;;5.47;100.00
13027;BME280;6580;42.680;23.324;2024-01-27T04:02:15;95668.00;;;5.64;100.00
13027;BME280;6580;42.680;23.324;2024-01-27T04:04:43;95674.34;;;5.50;100.00
13027;BME280;6580;42.680;23.324;2024-01-27T04:07:10;95674.34;;;5.50;100.00
13027;BME280;6580;42.680;23.324;2024-01-27T04:09:38;95670.75;;;5.51;100.00
13027;BME280;6580;42.680;23.324;2024-01-27T04:12:06;95672.47;;;5.63;100.00
13027;BME280;6580;42.680;23.324;2024-01-27T04:14:33;95673.25;;;5.42;100.00
13027;BME280;6580;42.680;23.324;2024-01-27T04:17:00;95669.56;;;5.44;100.00
13027;BME280;6580;42.680;23.324;2024-01-27T04:19:30;95666.41;;;5.39;100.00
13027;BME280;6580;42.680;23.324;2024-01-27T04:21:57;95662.09;;;5.38;100.00
13027;BME280;6580;42.680;23.324;2024-01-27T04:24:24;95667.34;;;5.27;100.00
13027;BME280;6580;42.680;23.324;2024-01-27T04:26:55;95675.44;;;5.13;100.00
13027;BME280;6580;42.680;23.324;2024-01-27T04:29:22;95666.91;;;5.10;100.00
13027;BME280;6580;42.680;23.324;2024-01-27T04:31:51;95671.09;;;5.01;100.00
13027;BME280;6580;42.680;23.324;2024-01-27T04:34:18;95670.00;;;5.04;100.00
13027;BME280;6580;42.680;23.324;2024-01-27T04:36:46;95664.81;;;5.26;100.00
13027;BME280;6580;42.680;23.324;2024-01-27T04:39:13;95668.31;;;5.26;100.00
13027;BME280;6580;42.680;23.324;2024-01-27T04:41:41;95669.28;;;5.47;100.00
13027;BME280;6580;42.680;23.324;2024-01-27T04:44:10;95664.88;;;5.48;100.00
13027;BME280;6580;42.680;23.324;2024-01-27T04:46:42;95653.88;;;5.19;100.00
13027;BME280;6580;42.680;23.324;2024-01-27T04:49:09;95671.13;;;5.58;100.00
13027;BME280;6580;42.680;23.324;2024-01-27T04:51:36;95668.31;;;5.37;100.00
13027;BME280;6580;42.680;23.324;2024-01-27T04:54:03;95674.91;;;5.32;100.00
13027;BME280;6580;42.680;23.324;2024-01-27T04:56:30;95668.59;;;5.56;100.00
13027;BME280;6580;42.680;23.324;2024-01-27T04:58:57;95674.03;;;5.55;100.00
13027;BME280;6580;42.680;23.324;2024-01-27T05:01:26;95675.66;;;5.56;100.00
13027;BME280;6580;42.680;23.324;2024-01-27T05:03:53;95678.53;;;5.42;100.00
13027;BME280;6580;42.680;23.324;2024-01-27T05:06:23;95685.00;;;5.38;100.00
13027;BME280;6580;42.680;23.324;2024-01-27T05:08:50;95684.03;;;5.28;100.00
13027;BME280;6580;42.680;23.324;2024-01-27T05:11:25;95691.81;;;5.29;100.00
13027;BME280;6580;42.680;23.324;2024-01-27T05:13:52;95697.44;;;5.25;100.00
13027;BME280;6580;42.680;23.324;2024-01-27T05:16:19;95695.19;;;5.31;100.00
13027;BME280;6580;42.680;23.324;2024-01-27T05:18:48;95688.06;;;5.21;100.00
13027;BME280;6580;42.680;23.324;2024-01-27T05:21:15;95686.94;;;5.12;100.00
13027;BME280;6580;42.680;23.324;2024-01-27T05:23:43;95696.50;;;5.37;100.00
13027;BME280;6580;42.680;23.324;2024-01-27T05:26:11;95694.66;;;5.15;100.00
13027;BME280;6580;42.680;23.324;2024-01-27T05:28:38;95699.31;;;5.12;100.00
13027;BME280;6580;42.680;23.324;2024-01-27T05:31:09;95702.53;;;5.04;100.00
13027;BME280;6580;42.680;23.324;2024-01-27T05:33:37;95700.41;;;5.09;100.00
13027;BME280;6580;42.680;23.324;2024-01-27T05:36:12;95702.13;;;5.21;100.00
13027;BME280;6580;42.680;23.324;2024-01-27T05:38:39;95701.09;;;5.11;100.00
13027;BME280;6580;42.680;23.324;2024-01-27T05:41:07;95711.50;;;5.25;100.00
13027;BME280;6580;42.680;23.324;2024-01-27T05:43:34;95708.44;;;5.19;100.00
13027;BME280;6580;42.680;23.324;2024-01-27T05:46:03;95714.78;;;5.05;100.00
13027;BME280;6580;42.680;23.324;2024-01-27T05:48:29;95720.88;;;5.06;100.00
13027;BME280;6580;42.680;23.324;2024-01-27T05:50:57;95721.09;;;5.03;100.00
13027;BME280;6580;42.680;23.324;2024-01-27T05:53:27;95717.28;;;5.07;100.00
13027;BME280;6580;42.680;23.324;2024-01-27T05:55:55;95723.19;;;5.10;100.00
13027;BME280;6580;42.680;23.324;2024-01-27T05:58:22;95728.28;;;5.01;100.00
13027;BME280;6580;42.680;23.324;2024-01-27T06:00:52;95726.91;;;4.85;100.00
13027;BME280;6580;42.680;23.324;2024-01-27T06:03:19;95729.88;;;4.80;100.00
13027;BME280;6580;42.680;23.324;2024-01-27T06:05:46;95713.88;;;4.71;100.00
13027;BME280;6580;42.680;23.324;2024-01-27T06:08:13;95744.16;;;4.65;100.00
13027;BME280;6580;42.680;23.324;2024-01-27T06:10:42;95743.44;;;4.63;100.00
13027;BME280;6580;42.680;23.324;2024-01-27T06:13:09;95743.03;;;4.57;100.00
13027;BME280;6580;42.680;23.324;2024-01-27T06:15:36;95751.47;;;4.62;100.00
13027;BME280;6580;42.680;23.324;2024-01-27T06:18:05;95758.84;;;4.57;100.00
13027;BME280;6580;42.680;23.324;2024-01-27T06:20:32;95755.50;;;4.55;100.00
13027;BME280;6580;42.680;23.324;2024-01-27T06:22:59;95759.09;;;4.54;100.00
13027;BME280;6580;42.680;23.324;2024-01-27T06:25:26;95760.94;;;4.64;100.00
13027;BME280;6580;42.680;23.324;2024-01-27T06:27:55;95766.53;;;4.60;100.00
13027;BME280;6580;42.680;23.324;2024-01-27T06:30:23;95768.19;;;4.73;100.00
13027;BME280;6580;42.680;23.324;2024-01-27T06:32:50;95770.72;;;4.75;100.00
13027;BME280;6580;42.680;23.324;2024-01-27T06:35:18;95781.28;;;4.75;100.00
13027;BME280;6580;42.680;23.324;2024-01-27T06:37:45;95788.16;;;4.77;100.00
13027;BME280;6580;42.680;23.324;2024-01-27T06:40:13;95796.53;;;4.95;100.00
13027;BME280;6580;42.680;23.324;2024-01-27T06:42:42;95782.53;;;5.28;100.00
13027;BME280;6580;42.680;23.324;2024-01-27T06:45:10;95775.44;;;5.52;100.00
13027;BME280;6580;42.680;23.324;2024-01-27T06:47:37;95779.94;;;5.63;100.00
13027;BME280;6580;42.680;23.324;2024-01-27T06:50:08;95790.25;;;5.78;100.00
13027;BME280;6580;42.680;23.324;2024-01-27T06:52:35;95797.97;;;5.92;100.00
13027;BME280;6580;42.680;23.324;2024-01-27T06:55:03;95798.56;;;5.96;100.00
13027;BME280;6580;42.680;23.324;2024-01-27T06:57:35;95796.03;;;5.94;100.00
13027;BME280;6580;42.680;23.324;2024-01-27T07:00:02;95799.41;;;5.96;100.00
13027;BME280;6580;42.680;23.324;2024-01-27T07:02:31;95756.88;;;5.99;100.00
13027;BME280;6580;42.680;23.324;2024-01-27T07:04:58;95773.97;;;6.28;100.00
13027;BME280;6580;42.680;23.324;2024-01-27T07:07:26;95776.03;;;6.46;100.00
13027;BME280;6580;42.680;23.324;2024-01-27T07:09:55;95768.19;;;6.56;100.00
13027;BME280;6580;42.680;23.324;2024-01-27T07:12:23;95745.00;;;6.48;100.00
13027;BME280;6580;42.680;23.324;2024-01-27T07:14:52;95766.63;;;6.64;100.00
13027;BME280;6580;42.680;23.324;2024-01-27T07:17:21;95768.69;;;6.39;100.00
13027;BME280;6580;42.680;23.324;2024-01-27T07:19:50;95771.81;;;6.33;100.00
13027;BME280;6580;42.680;23.324;2024-01-27T07:22:17;95774.22;;;6.47;100.00
13027;BME280;6580;42.680;23.324;2024-01-27T07:24:45;95769.19;;;6.33;100.00
13027;BME280;6580;42.680;23.324;2024-01-27T07:27:13;95771.69;;;6.23;100.00
13027;BME280;6580;42.680;23.324;2024-01-27T07:29:40;95799.38;;;6.41;100.00
13027;BME280;6580;42.680;23.324;2024-01-27T07:32:08;95803.22;;;6.26;100.00
13027;BME280;6580;42.680;23.324;2024-01-27T07:34:40;95829.16;;;6.21;100.00
13027;BME280;6580;42.680;23.324;2024-01-27T07:37:08;95832.97;;;6.17;100.00
13027;BME280;6580;42.680;23.324;2024-01-27T07:39:36;95836.94;;;6.12;100.00
13027;BME280;6580;42.680;23.324;2024-01-27T07:42:03;95862.81;;;6.19;100.00
13027;BME280;6580;42.680;23.324;2024-01-27T07:44:31;95866.63;;;6.04;100.00
13027;BME280;6580;42.680;23.324;2024-01-27T07:46:58;95866.25;;;6.09;100.00
13027;BME280;6580;42.680;23.324;2024-01-27T07:49:26;95844.53;;;6.16;100.00
13027;BME280;6580;42.680;23.324;2024-01-27T07:51:54;95863.78;;;6.29;100.00
13027;BME280;6580;42.680;23.324;2024-01-27T07:54:24;95858.00;;;6.24;100.00
13027;BME280;6580;42.680;23.324;2024-01-27T07:56:51;95847.75;;;6.20;100.00
13027;BME280;6580;42.680;23.324;2024-01-27T07:59:18;95862.22;;;6.27;100.00
13027;BME280;6580;42.680;23.324;2024-01-27T08:01:46;95870.50;;;6.22;100.00
13027;BME280;6580;42.680;23.324;2024-01-27T08:04:17;95863.91;;;6.28;100.00
13027;BME280;6580;42.680;23.324;2024-01-27T08:06:49;95861.84;;;6.20;100.00
13027;BME280;6580;42.680;23.324;2024-01-27T08:09:17;95875.44;;;6.27;100.00
13027;BME280;6580;42.680;23.324;2024-01-27T08:11:49;95882.28;;;6.29;100.00
13027;BME280;6580;42.680;23.324;2024-01-27T08:14:18;95891.59;;;6.35;100.00
13027;BME280;6580;42.680;23.324;2024-01-27T08:16:48;95864.28;;;6.34;100.00
13027;BME280;6580;42.680;23.324;2024-01-27T08:19:16;95860.59;;;6.59;98.45
13027;BME280;6580;42.680;23.324;2024-01-27T08:21:46;95866.84;;;6.58;99.01
13027;BME280;6580;42.680;23.324;2024-01-27T08:24:14;95896.38;;;6.41;98.31
13027;BME280;6580;42.680;23.324;2024-01-27T08:26:42;95863.00;;;6.62;99.22
13027;BME280;6580;42.680;23.324;2024-01-27T08:29:11;95873.94;;;6.68;96.24
13027;BME280;6580;42.680;23.324;2024-01-27T08:31:38;95882.50;;;6.83;95.38
13027;BME280;6580;42.680;23.324;2024-01-27T08:34:05;95856.50;;;6.99;93.48
13027;BME280;6580;42.680;23.324;2024-01-27T08:36:32;95857.94;;;7.13;91.16
13027;BME280;6580;42.680;23.324;2024-01-27T08:39:00;95879.22;;;7.45;87.52
13027;BME280;6580;42.680;23.324;2024-01-27T08:41:31;95873.97;;;7.65;87.29
13027;BME280;6580;42.680;23.324;2024-01-27T08:43:58;95871.06;;;7.68;84.65
13027;BME280;6580;42.680;23.324;2024-01-27T08:46:27;95863.34;;;7.76;83.42
13027;BME280;6580;42.680;23.324;2024-01-27T08:48:54;95857.09;;;7.66;84.41
13027;BME280;6580;42.680;23.324;2024-01-27T08:51:26;95868.19;;;8.02;81.77
13027;BME280;6580;42.680;23.324;2024-01-27T08:53:54;95847.28;;;7.89;83.57
13027;BME280;6580;42.680;23.324;2024-01-27T08:56:22;95835.34;;;7.83;82.43
13027;BME280;6580;42.680;23.324;2024-01-27T08:58:53;95837.34;;;7.70;85.39
13027;BME280;6580;42.680;23.324;2024-01-27T09:01:19;95830.72;;;7.96;84.87
13027;BME280;6580;42.680;23.324;2024-01-27T09:03:48;95839.16;;;7.70;83.98
13027;BME280;6580;42.680;23.324;2024-01-27T09:06:15;95832.75;;;7.72;83.40
13027;BME280;6580;42.680;23.324;2024-01-27T09:08:44;95819.75;;;7.69;83.44
13027;BME280;6580;42.680;23.324;2024-01-27T09:11:11;95821.16;;;7.42;84.79
13027;BME280;6580;42.680;23.324;2024-01-27T09:13:38;95830.50;;;7.57;84.26
13027;BME280;6580;42.680;23.324;2024-01-27T09:16:07;95817.09;;;7.69;82.20
13027;BME280;6580;42.680;23.324;2024-01-27T09:18:37;95830.72;;;7.96;81.98
13027;BME280;6580;42.680;23.324;2024-01-27T09:21:08;95835.50;;;8.02;79.66
13027;BME280;6580;42.680;23.324;2024-01-27T09:23:38;95812.22;;;8.05;77.85
13027;BME280;6580;42.680;23.324;2024-01-27T09:26:06;95829.28;;;7.92;80.58
13027;BME280;6580;42.680;23.324;2024-01-27T09:28:33;95818.97;;;8.09;78.71
13027;BME280;6580;42.680;23.324;2024-01-27T09:31:03;95816.00;;;8.44;77.87
13027;BME280;6580;42.680;23.324;2024-01-27T09:33:31;95825.72;;;8.84;74.52
13027;BME280;6580;42.680;23.324;2024-01-27T09:36:01;95830.16;;;9.13;72.96
13027;BME280;6580;42.680;23.324;2024-01-27T09:38:30;95835.78;;;9.78;69.56
13027;BME280;6580;42.680;23.324;2024-01-27T09:40:58;95846.28;;;9.89;69.41
13027;BME280;6580;42.680;23.324;2024-01-27T09:43:28;95828.81;;;9.96;69.50
13027;BME280;6580;42.680;23.324;2024-01-27T09:45:55;95842.81;;;9.30;68.77
13027;BME280;6580;42.680;23.324;2024-01-27T09:48:22;95848.88;;;8.73;71.17
13027;BME280;6580;42.680;23.324;2024-01-27T09:50:53;95848.13;;;8.20;75.89
13027;BME280;6580;42.680;23.324;2024-01-27T09:53:23;95861.19;;;7.70;79.01
13027;BME280;6580;42.680;23.324;2024-01-27T09:55:58;95849.13;;;7.77;79.57
13027;BME280;6580;42.680;23.324;2024-01-27T09:58:27;95861.31;;;7.69;78.88
13027;BME280;6580;42.680;23.324;2024-01-27T10:00:56;95863.13;;;7.68;78.35
13027;BME280;6580;42.680;23.324;2024-01-27T10:03:28;95862.97;;;7.81;78.10
13027;BME280;6580;42.680;23.324;2024-01-27T10:05:56;95829.44;;;7.48;78.59
13027;BME280;6580;42.680;23.324;2024-01-27T10:08:25;95869.72;;;7.74;78.33
13027;BME280;6580;42.680;23.324;2024-01-27T10:10:55;95890.81;;;7.33;80.25
13027;BME280;6580;42.680;23.324;2024-01-27T10:13:22;95897.44;;;7.27;81.25
13027;BME280;6580;42.680;23.324;2024-01-27T10:15:59;95893.81;;;7.17;82.29
13027;BME280;6580;42.680;23.324;2024-01-27T10:18:27;95889.84;;;7.34;82.32
13027;BME280;6580;42.680;23.324;2024-01-27T10:20:55;95898.91;;;7.09;82.45
13027;BME280;6580;42.680;23.324;2024-01-27T10:23:23;95905.25;;;7.07;83.86
13027;BME280;6580;42.680;23.324;2024-01-27T10:25:59;95902.75;;;7.05;82.79
13027;BME280;6580;42.680;23.324;2024-01-27T10:28:27;95923.56;;;6.99;84.64
13027;BME280;6580;42.680;23.324;2024-01-27T10:30:55;95911.53;;;6.95;84.83
13027;BME280;6580;42.680;23.324;2024-01-27T10:33:35;95914.28;;;7.04;85.19
13027;BME280;6580;42.680;23.324;2024-01-27T10:36:04;95911.13;;;7.10;84.73
13027;BME280;6580;42.680;23.324;2024-01-27T10:38:35;95909.66;;;6.74;85.92
13027;BME280;6580;42.680;23.324;2024-01-27T10:41:08;95905.47;;;6.71;86.26
13027;BME280;6580;42.680;23.324;2024-01-27T10:43:36;95902.00;;;6.82;86.58
13027;BME280;6580;42.680;23.324;2024-01-27T10:46:05;95915.94;;;6.95;86.10
13027;BME280;6580;42.680;23.324;2024-01-27T10:48:34;95913.53;;;6.81;86.49
13027;BME280;6580;42.680;23.324;2024-01-27T10:51:05;95894.75;;;6.51;87.40
13027;BME280;6580;42.680;23.324;2024-01-27T10:53:34;95925.78;;;6.60;88.18
13027;BME280;6580;42.680;23.324;2024-01-27T10:56:05;95908.72;;;6.64;87.89
13027;BME280;6580;42.680;23.324;2024-01-27T10:58:36;95927.88;;;6.78;88.05
13027;BME280;6580;42.680;23.324;2024-01-27T11:01:07;95926.63;;;6.60;87.69
13027;BME280;6580;42.680;23.324;2024-01-27T11:03:39;95949.06;;;6.44;89.88
13027;BME280;6580;42.680;23.324;2024-01-27T11:06:11;95944.53;;;6.57;89.55
13027;BME280;6580;42.680;23.324;2024-01-27T11:08:39;95946.44;;;6.44;90.95
13027;BME280;6580;42.680;23.324;2024-01-27T11:11:11;95931.56;;;6.54;91.54
13027;BME280;6580;42.680;23.324;2024-01-27T11:13:42;95954.97;;;6.47;91.77
13027;BME280;6580;42.680;23.324;2024-01-27T11:16:15;95946.00;;;6.61;91.64
13027;BME280;6580;42.680;23.324;2024-01-27T11:18:43;95946.94;;;6.49;90.67
13027;BME280;6580;42.680;23.324;2024-01-27T11:21:13;95954.00;;;6.37;92.42
13027;BME280;6580;42.680;23.324;2024-01-27T11:23:41;95949.50;;;6.27;93.87
13027;BME280;6580;42.680;23.324;2024-01-27T11:26:18;95947.28;;;6.44;94.14
13027;BME280;6580;42.680;23.324;2024-01-27T11:28:46;95956.66;;;6.48;93.09
13027;BME280;6580;42.680;23.324;2024-01-27T11:31:16;95956.31;;;6.18;94.65
13027;BME280;6580;42.680;23.324;2024-01-27T11:33:46;95942.44;;;6.04;95.76
13027;BME280;6580;42.680;23.324;2024-01-27T11:36:21;95955.25;;;5.98;96.33
13027;BME280;6580;42.680;23.324;2024-01-27T11:38:50;95948.00;;;6.12;96.09
13027;BME280;6580;42.680;23.324;2024-01-27T11:41:40;95959.41;;;5.89;97.95
13027;BME280;6580;42.680;23.324;2024-01-27T11:44:12;95952.53;;;5.99;97.11
13027;BME280;6580;42.680;23.324;2024-01-27T11:46:41;95943.16;;;6.06;95.97
13027;BME280;6580;42.680;23.324;2024-01-27T11:49:15;95953.13;;;6.03;96.17
13027;BME280;6580;42.680;23.324;2024-01-27T11:51:42;95951.16;;;6.17;93.84
13027;BME280;6580;42.680;23.324;2024-01-27T11:54:11;95957.13;;;6.08;93.76
13027;BME280;6580;42.680;23.324;2024-01-27T11:56:39;95973.88;;;6.19;92.95
13027;BME280;6580;42.680;23.324;2024-01-27T11:59:06;95954.00;;;6.37;90.46
13027;BME280;6580;42.680;23.324;2024-01-27T12:01:34;95960.16;;;6.49;89.19
13027;BME280;6580;42.680;23.324;2024-01-27T12:04:03;95974.56;;;6.45;88.21
13027;BME280;6580;42.680;23.324;2024-01-27T12:06:31;95963.31;;;6.30;87.44
13027;BME280;6580;42.680;23.324;2024-01-27T12:08:58;95951.78;;;6.31;86.94
13027;BME280;6580;42.680;23.324;2024-01-27T12:11:26;95992.88;;;6.48;85.16
13027;BME280;6580;42.680;23.324;2024-01-27T12:13:57;95989.34;;;6.82;83.46
13027;BME280;6580;42.680;23.324;2024-01-27T12:16:24;95978.94;;;7.24;80.11
13027;BME280;6580;42.680;23.324;2024-01-27T12:18:53;95978.00;;;7.36;79.34
13027;BME280;6580;42.680;23.324;2024-01-27T12:21:22;95975.63;;;7.97;76.95
13027;BME280;6580;42.680;23.324;2024-01-27T12:23:51;95963.09;;;7.88;73.69
13027;BME280;6580;42.680;23.324;2024-01-27T12:26:20;95974.38;;;9.15;69.39
13027;BME280;6580;42.680;23.324;2024-01-27T12:28:51;95959.13;;;10.73;62.32
13027;BME280;6580;42.680;23.324;2024-01-27T12:31:22;95959.31;;;12.09;55.13
13027;BME280;6580;42.680;23.324;2024-01-27T12:33:50;95964.66;;;11.36;55.25
13027;BME280;6580;42.680;23.324;2024-01-27T12:36:20;95962.81;;;11.83;54.13
13027;BME280;6580;42.680;23.324;2024-01-27T12:38:56;95965.44;;;10.63;56.35
13027;BME280;6580;42.680;23.324;2024-01-27T12:41:24;95948.22;;;11.31;55.58
13027;BME280;6580;42.680;23.324;2024-01-27T12:43:51;95949.19;;;10.85;57.14
13027;BME280;6580;42.680;23.324;2024-01-27T12:46:19;95939.94;;;9.83;59.25
13027;BME280;6580;42.680;23.324;2024-01-27T12:48:49;95962.91;;;10.14;59.17
13027;BME280;6580;42.680;23.324;2024-01-27T12:51:18;95948.47;;;10.26;57.03
13027;BME280;6580;42.680;23.324;2024-01-27T12:53:48;95967.53;;;11.52;54.74
13027;BME280;6580;42.680;23.324;2024-01-27T12:56:15;95959.66;;;11.05;56.55
13027;BME280;6580;42.680;23.324;2024-01-27T12:58:42;95958.00;;;9.40;57.90
13027;BME280;6580;42.680;23.324;2024-01-27T13:01:12;95961.97;;;8.55;63.42
13027;BME280;6580;42.680;23.324;2024-01-27T13:03:42;95959.09;;;9.68;60.92
13027;BME280;6580;42.680;23.324;2024-01-27T13:06:11;95943.97;;;10.74;56.03
13027;BME280;6580;42.680;23.324;2024-01-27T13:08:39;95953.94;;;10.15;55.93
13027;BME280;6580;42.680;23.324;2024-01-27T13:11:07;95941.41;;;11.19;53.26
13027;BME280;6580;42.680;23.324;2024-01-27T13:13:34;95946.53;;;10.66;52.81
13027;BME280;6580;42.680;23.324;2024-01-27T13:16:03;95956.31;;;10.94;51.69